Flight Track Log - Related Links

Times and Time Zones

All times are in EDT time to prevent confusion due to time zone crossing. See the CPZ5734 flight status page for this flight to view local times or setup timezone preferences in your user account.

Time Position Orientation Groundspeed Altitude Reporting Facility
EDT Latitude Longitude Course Direction KTS MPH feet Rate Location/Type
Thu 10:11:32 PM 40.8153 -111.9792 99° East 163 188 5,500  Level Salt Lake Center
Thu 10:12:27 PM 40.8664 -111.9875 353° North 209 241 6,700 1,696 Climbing Salt Lake Center
Thu 10:13:04 PM 40.9053 -111.9906 357° North 233 268 8,100 2,500 Climbing Salt Lake Center
Thu 10:13:27 PM 40.9347 -111.9953 353° North 249 287 9,200 2,852 Climbing Salt Lake Center
Thu 10:14:00 PM 40.9144 -111.5010 101° East  Level FlightAware Approximate
Thu 10:14:05 PM 40.9778 -111.9992 356° North 257 296 11,000  Level Salt Lake Center
Thu 10:15:00 PM 40.8986 -111.3389 99° East  Level FlightAware Approximate
Thu 10:15:07 PM 41.0214 -111.9253 52° Northeast 289 333 13,300  Level Salt Lake Center
Thu 10:16:00 PM 40.8785 -111.1771 99° East  Level FlightAware Approximate
Thu 10:16:08 PM 40.9936 -111.8281 111° Southeast 303 349 14,900  Level Salt Lake Center
Thu 10:17:10 PM 40.9647 -111.7019 107° East 314 361 17,800 2,049 Climbing Salt Lake Center
Thu 10:18:11 PM 40.9667 -111.5717 89° East 357 411 19,100 1,902 Climbing Salt Lake Center
Thu 10:19:13 PM 40.9686 -111.4344 89° East 375 432 21,700 1,902 Climbing Salt Lake Center
Thu 10:20:14 PM 40.9717 -111.2978 88° East 374 430 23,000 1,171 Climbing Salt Lake Center
Thu 10:21:16 PM 40.9731 -111.1517 89° East 394 453 24,100 1,210 Climbing Salt Lake Center
Thu 10:22:18 PM 40.9742 -110.9972 89° East 415 478 25,500 1,171 Climbing Salt Lake Center
Thu 10:23:19 PM 40.9744 -110.8369 90° East 430 495 26,500 976 Climbing Salt Lake Center
Thu 10:24:21 PM 40.9767 -110.6331 89° East 457 526 27,500 1,024 Climbing Salt Lake Center
Thu 10:25:22 PM 40.9806 -110.4544 88° East 472 543 28,600 976 Climbing Salt Lake Center
Thu 10:26:24 PM 40.9811 -110.2861 90° East 477 549 29,500 1,024 Climbing Salt Lake Center
Thu 10:27:25 PM 40.9817 -110.1144 90° East 485 558 30,700 1,268 Climbing Salt Lake Center
Thu 10:28:27 PM 40.9819 -109.9181 90° East 480 552 32,100 1,065 Climbing Salt Lake Center
Thu 10:29:29 PM 40.9825 -109.7522 90° East 474 545 32,900 683 Climbing Salt Lake Center
Thu 10:30:30 PM 40.9822 -109.5544 90° East 483 556 33,500 537 Climbing Salt Lake Center
Thu 10:31:32 PM 40.9822 -109.3831 90° East 489 563 34,000 515 Climbing Salt Lake Center
Thu 10:33:13 PM 40.9819 -109.0647 90° East 497 572 34,900 370 Climbing Denver Center
Thu 10:34:14 PM 40.9806 -108.8908 91° East 498 573 35,000 49 Climbing Denver Center
Thu 10:35:16 PM 40.9783 -108.6806 91° East 512 589 35,000  Level Denver Center
Thu 10:36:17 PM 40.9764 -108.4967 91° East 523 602 35,000  Level Denver Center
Thu 10:37:19 PM 40.9739 -108.2814 91° East 527 606 35,000  Level Denver Center
Thu 10:38:21 PM 40.9725 -108.0975 91° East 525 604 35,000  Level Denver Center
Thu 10:39:22 PM 40.9697 -107.8833 91° East 525 604 35,000  Level Denver Center
Thu 10:40:24 PM 40.9672 -107.7003 91° East 522 601 35,000  Level Denver Center
Thu 10:41:25 PM 40.9631 -107.5178 92° East 521 600 35,000  Level Denver Center
Thu 10:42:27 PM 40.9583 -107.3019 92° East 526 605 35,000  Level Denver Center
Thu 10:43:28 PM 40.9553 -107.1175 91° East 526 605 35,000  Level Denver Center
Thu 10:44:30 PM 40.9508 -106.9031 92° East 525 604 35,000  Level Denver Center
Thu 10:45:31 PM 40.9467 -106.7183 92° East 525 604 35,000  Level Denver Center
Thu 10:46:33 PM 40.9411 -106.5003 92° East 532 612 35,000  Level Denver Center
Thu 10:47:34 PM 40.9342 -106.3125 93° East 536 617 35,000  Level Denver Center
Thu 10:48:36 PM 40.9297 -106.1217 92° East 538 619 35,000  Level Denver Center
Thu 10:49:37 PM 40.9231 -105.9236 92° East 539 620 35,000  Level Denver Center
Thu 10:50:39 PM 40.9178 -105.7283 92° East 535 616 35,000  Level Denver Center
Thu 10:51:40 PM 40.9100 -105.4933 92° East 533 613 35,000  Level Denver Center
Thu 10:52:42 PM 40.9022 -105.2994 93° East 531 611 35,000  Level Denver Center
Thu 10:53:43 PM 40.8950 -105.1056 93° East 528 608 35,000  Level Denver Center
Thu 10:54:44 PM 40.8869 -104.9114 93° East 528 608 35,000  Level Denver Center
Thu 10:55:46 PM 40.8783 -104.7217 93° East 520 598 35,000  Level Denver Center
Thu 10:56:47 PM 40.8706 -104.5317 93° East 517 595 35,000  Level Denver Center
Thu 10:58:00 PM 40.8620 -104.3325 93° East  Level FlightAware Approximate
Thu 10:58:50 PM 40.8533 -104.1497 93° East 520 598 35,000  Level Denver Center
Thu 10:59:51 PM 40.8436 -103.9583 94° East 523 602 35,000  Level Denver Center
Thu 11:00:53 PM 40.8333 -103.7672 94° East 522 601 35,000  Level Denver Center
Thu 11:01:54 PM 40.8242 -103.5747 94° East 524 603 35,000  Level Denver Center
Thu 11:02:55 PM 40.8117 -103.3456 94° East 523 602 35,000  Level Denver Center
Thu 11:03:57 PM 40.8008 -103.1556 94° East 521 600 35,000  Level Denver Center
Thu 11:04:58 PM 40.7900 -102.9533 94° East 526 605 35,000  Level Denver Center
Thu 11:05:59 PM 40.7783 -102.7722 95° East 520 598 35,000  Level Denver Center
Thu 11:07:00 PM 40.7675 -102.5897 94° East 522 601 35,000  Level Denver Center
Thu 11:08:02 PM 40.7539 -102.3772 95° East 522 601 35,000  Level Denver Center
Thu 11:09:03 PM 40.7428 -102.1964 95° East 519 597 35,000  Level Denver Center
Thu 11:10:04 PM 40.7328 -102.0439 95° East 522 601 35,000  Level Denver Center
Thu 11:11:06 PM 40.7169 -101.7986 95° East 526 605 35,000  Level Denver Center
Thu 11:12:19 PM 40.7042 -101.6153 95° East 525 604 35,000  Level Denver Center
Thu 11:13:20 PM 40.6867 -101.3714 95° East 526 605 35,000  Level Denver Center
Thu 11:14:21 PM 40.6736 -101.1908 95° East 522 601 35,000  Level Denver Center
Thu 11:15:23 PM 40.6575 -100.9811 96° East 520 598 35,000  Level Denver Center
Thu 11:16:24 PM 40.6444 -100.8017 95° East 522 601 35,000  Level Denver Center
Thu 11:17:25 PM 40.6289 -100.5947 96° East 519 597 35,000  Level Denver Center
Thu 11:18:26 PM 40.6156 -100.4161 96° East 517 595 35,000  Level Denver Center
Thu 11:19:28 PM 40.5986 -100.2100 96° East 513 590 35,000  Level Denver Center
Thu 11:20:29 PM 40.5842 -100.0319 96° East 513 590 35,000  Level Denver Center
Thu 11:21:30 PM 40.5681 -99.8533 97° East 521 600 35,000  Level Denver Center
Thu 11:22:31 PM 40.5522 -99.6661 96° East 518 596 35,000  Level Denver Center
Thu 11:23:32 PM 40.5322 -99.4417 97° East 518 596 35,000  Level Denver Center
Thu 11:24:34 PM 40.5164 -99.2553 96° East 516 594 35,000  Level Denver Center
Thu 11:25:35 PM 40.4994 -99.0692 97° East 516 594 35,000  Level Denver Center
Thu 11:26:36 PM 40.4814 -98.8819 97° East 520 598 35,000  Level Denver Center
Thu 11:27:37 PM 40.4647 -98.6969 97° East 514 592 35,000  Level Denver Center
Thu 11:28:39 PM 40.4467 -98.5100 97° East 519 597 35,000  Level Denver Center
Thu 11:30:09 PM 40.4164 -98.2103 97° East 522 601 35,000  Level Minneapolis Center
Thu 11:31:10 PM 40.3975 -98.0225 97° East 522 601 35,000  Level Minneapolis Center
Thu 11:32:11 PM 40.3794 -97.8350 97° East 520 598 35,000 -148 Level Minneapolis Center
Thu 11:33:12 PM 40.3589 -97.6478 98° East 520 598 34,700 -639 Descending Minneapolis Center
Thu 11:34:13 PM 40.3397 -97.4600 98° East 520 598 33,700 -934 Descending Minneapolis Center
Thu 11:35:14 PM 40.3203 -97.2861 98° East 520 598 32,800 -1,033 Descending Minneapolis Center
Thu 11:36:15 PM 40.2964 -97.0622 98° East 520 598 31,600 -1,082 Descending Minneapolis Center
Thu 11:37:16 PM 40.2758 -96.8781 98° East 517 595 30,600 -984 Descending Minneapolis Center
Thu 11:38:17 PM 40.2553 -96.6939 98° East 514 592 29,600 -1,475 Descending Minneapolis Center
Thu 11:39:18 PM 40.2350 -96.5125 98° East 509 586 27,600 -2,262 Descending Minneapolis Center
Thu 11:40:19 PM 40.2158 -96.3375 98° East 496 571 25,000 -2,459 Descending Minneapolis Center
Thu 11:41:20 PM 40.1875 -96.1781 103° East 466 536 22,600 -2,164 Descending Minneapolis Center
Thu 11:42:21 PM 40.1300 -96.0450 119° Southeast 430 495 20,600 -1,912 Descending Minneapolis Center
Thu 11:43:13 PM 40.0781 -95.9317 121° Southeast 421 484 19,000 -1,965 Descending Kansas City Center
Thu 11:44:14 PM 40.0164 -95.7886 119° Southeast 408 470 16,900 -1,820 Descending Kansas City Center
Thu 11:45:15 PM 39.9656 -95.6747 120° Southeast 393 452 15,300 -1,574 Descending Kansas City Center
Thu 11:46:16 PM 39.9136 -95.5614 121° Southeast 382 440 13,700 -1,623 Descending Kansas City Center
Thu 11:47:17 PM 39.8519 -95.4303 121° Southeast 379 436 12,000 -934 Descending Kansas City Center
Thu 11:48:18 PM 39.7997 -95.3217 122° Southeast 370 426 11,800 -793 Descending Kansas City Center
Thu 11:49:18 PM 39.7550 -95.2289 122° Southeast 322 371 10,400 -1,736 Descending Kansas City Center
Thu 11:50:19 PM 39.7089 -95.1261 120° Southeast 296 341 8,300 -1,869 Descending Kansas City Center
Thu 11:51:20 PM 39.6639 -95.0517 128° Southeast 275 316 6,600 -1,131 Descending Kansas City Center
Thu 11:52:21 PM 39.6214 -94.9800 128° Southeast 262 302 6,000 -934 Descending Kansas City Center
Thu 11:53:22 PM 39.5786 -94.9097 128° Southeast 259 298 4,700 -992 Descending Kansas City Center
Thu 11:54:22 PM 39.5308 -94.8278 127° Southeast 254 292 4,000 -893 Descending Kansas City Center
Thu 11:55:23 PM 39.4922 -94.7636 128° Southeast 237 273 2,900 -689 Descending Kansas City Center
Thu 11:56:24 PM 39.4494 -94.7231 144° Southeast 200 230 2,600 -49 Descending Kansas City Center
Thu 11:57:25 PM 39.4050 -94.6828 145° Southeast 174 200 2,800 -198 Climbing Kansas City Center
Thu 11:58:25 PM 39.3692 -94.6836 181° South 135 155 2,200 -595 Descending Kansas City Center
Thu 11:59:26 PM 39.3369 -94.6925 192° South 125 144 1,600 -590 Descending Kansas City Center
Fri 12:00:27 AM 39.2953 -94.7050 193° South 134 154 1,000 -590 Descending Kansas City Center

Login

Don't have an account? Register now (free) for customized features, flight alerts, and more!